Time;durP1;ratioP1;P1;durP2;ratioP2;P2;SDS_P1;SDS_P2;PMS_P1;PMS_P2;Temp;Humidity;BMP_temperature;BMP_pressure;BME280_temperature;BME280_humidity;BME280_pressure;Samples;Min_cycle;Max_cycle;Signal;HPM_P1;HPM_P2
2023/06/24 00:01:50;;;;;;;20.13;13.32;;;;;;;;;;5039233;28;20032;-73
2023/06/24 00:04:18;;;;;;;20.08;11.82;;;;;;;;;;5038080;28;20028;-74
2023/06/24 00:06:44;;;;;;;18.40;12.77;;;;;;;;;;5036474;28;20036;-72
2023/06/24 00:09:10;;;;;;;20.60;13.75;;;;;;;;;;5036954;28;20037;-72
2023/06/24 00:11:36;;;;;;;21.88;12.55;;;;;;;;;;5036358;28;20108;-72
2023/06/24 00:14:02;;;;;;;20.20;12.82;;;;;;;;;;5035913;28;20021;-74
2023/06/24 00:16:28;;;;;;;20.70;12.93;;;;;;;;;;5034018;28;20025;-74
2023/06/24 00:19:00;;;;;;;21.05;13.65;;;;;;;;;;5033954;28;20030;-74
2023/06/24 00:21:32;;;;;;;18.55;12.00;;;;;;;;;;5033353;28;20030;-74
2023/06/24 00:23:58;;;;;;;18.27;12.88;;;;;;;;;;5033098;28;20104;-73
2023/06/24 00:26:25;;;;;;;23.27;12.57;;;;;;;;;;5033750;28;20029;-72
2023/06/24 00:28:51;;;;;;;21.27;13.38;;;;;;;;;;5033718;28;20026;-73
2023/06/24 00:31:17;;;;;;;18.90;12.85;;;;;;;;;;5033634;28;20237;-74
2023/06/24 00:33:43;;;;;;;24.83;13.75;;;;;;;;;;5032501;28;20028;-73
2023/06/24 00:36:11;;;;;;;23.70;15.90;;;;;;;;;;5033730;28;20120;-73
2023/06/24 00:38:37;;;;;;;27.65;13.57;;;;;;;;;;5034157;28;20022;-73
2023/06/24 00:41:03;;;;;;;18.90;12.85;;;;;;;;;;5033528;28;20036;-72
2023/06/24 00:43:29;;;;;;;22.85;12.50;;;;;;;;;;5033009;28;20083;-72
2023/06/24 00:45:56;;;;;;;20.25;12.73;;;;;;;;;;5033881;28;20034;-72
2023/06/24 00:48:22;;;;;;;20.88;13.27;;;;;;;;;;5034102;28;20025;-73
2023/06/24 00:50:49;;;;;;;19.77;13.77;;;;;;;;;;5033942;28;20026;-72
2023/06/24 00:53:15;;;;;;;21.80;13.18;;;;;;;;;;5033697;28;20022;-73
2023/06/24 00:55:41;;;;;;;21.48;13.23;;;;;;;;;;5033689;28;20036;-73
2023/06/24 00:58:08;;;;;;;18.42;12.98;;;;;;;;;;5033946;28;20021;-74
2023/06/24 01:00:34;;;;;;;21.30;13.80;;;;;;;;;;5032874;28;20398;-74
2023/06/24 01:03:00;;;;;;;25.05;14.50;;;;;;;;;;5032235;28;20044;-73
2023/06/24 01:05:26;;;;;;;23.85;15.20;;;;;;;;;;5033151;28;20029;-73
2023/06/24 01:07:56;;;;;;;21.20;12.68;;;;;;;;;;5032879;28;20037;-74
2023/06/24 01:10:23;;;;;;;22.55;13.70;;;;;;;;;;5032985;28;20130;-73
2023/06/24 01:12:50;;;;;;;20.60;12.85;;;;;;;;;;5031817;28;20021;-73
2023/06/24 01:15:16;;;;;;;21.10;13.00;;;;;;;;;;5032896;28;20025;-73
2023/06/24 01:18:09;;;;;;;23.20;13.48;;;;;;;;;;5031634;28;20095;-74
2023/06/24 01:20:57;;;;;;;22.17;12.85;;;;;;;;;;5032494;28;20487;-74
2023/06/24 01:23:23;;;;;;;23.10;13.38;;;;;;;;;;5032058;28;20061;-73
2023/06/24 01:25:58;;;;;;;19.25;12.90;;;;;;;;;;5032507;28;20439;-73
2023/06/24 01:28:30;;;;;;;23.60;13.13;;;;;;;;;;5031231;28;20067;-71
2023/06/24 01:30:59;;;;;;;19.50;12.32;;;;;;;;;;5033470;28;20021;-73
2023/06/24 01:33:30;;;;;;;19.42;12.50;;;;;;;;;;5033337;28;20032;-74
2023/06/24 01:35:58;;;;;;;20.17;13.30;;;;;;;;;;5034530;28;20037;-74
2023/06/24 01:38:44;;;;;;;21.08;12.52;;;;;;;;;;5033443;28;20566;-73
2023/06/24 01:41:12;;;;;;;22.38;12.10;;;;;;;;;;5031055;28;20036;-73
2023/06/24 01:43:41;;;;;;;19.80;12.27;;;;;;;;;;5032139;28;20032;-73
2023/06/24 01:46:08;;;;;;;23.55;12.82;;;;;;;;;;5033161;28;20376;-72
2023/06/24 01:48:36;;;;;;;21.67;12.50;;;;;;;;;;5032826;28;20037;-73
2023/06/24 01:51:07;;;;;;;17.50;12.30;;;;;;;;;;5032963;28;20081;-73
2023/06/24 01:53:39;;;;;;;16.48;11.45;;;;;;;;;;5031464;28;20028;-73
2023/06/24 01:56:06;;;;;;;21.77;12.38;;;;;;;;;;5030161;28;20025;-72
2023/06/24 01:58:34;;;;;;;18.33;12.13;;;;;;;;;;5031992;28;20068;-72
2023/06/24 02:01:01;;;;;;;23.33;11.93;;;;;;;;;;5031713;28;20025;-73
2023/06/24 02:03:28;;;;;;;20.27;11.68;;;;;;;;;;5031607;28;20029;-72
2023/06/24 02:05:54;;;;;;;19.40;12.20;;;;;;;;;;5031659;28;20029;-72
2023/06/24 02:08:20;;;;;;;18.30;11.85;;;;;;;;;;5030664;28;20461;-72
2023/06/24 02:10:47;;;;;;;22.02;11.95;;;;;;;;;;5031487;28;20120;-72
2023/06/24 02:13:14;;;;;;;19.67;11.35;;;;;;;;;;5031703;28;20096;-73
2023/06/24 02:15:40;;;;;;;21.45;11.77;;;;;;;;;;5031466;28;20038;-72
2023/06/24 02:18:09;;;;;;;28.38;12.82;;;;;;;;;;5030142;28;20119;-73
2023/06/24 02:20:36;;;;;;;20.55;12.38;;;;;;;;;;5030492;28;20069;-72
2023/06/24 02:23:02;;;;;;;18.58;12.60;;;;;;;;;;5030125;28;20025;-72
2023/06/24 02:25:29;;;;;;;21.13;12.52;;;;;;;;;;5030703;28;20033;-72
2023/06/24 02:27:55;;;;;;;24.42;12.68;;;;;;;;;;5030464;28;20021;-71
2023/06/24 02:30:22;;;;;;;20.58;12.63;;;;;;;;;;5030622;28;20103;-71
2023/06/24 02:32:48;;;;;;;19.38;12.55;;;;;;;;;;5029104;28;20391;-71
2023/06/24 02:35:14;;;;;;;18.98;13.00;;;;;;;;;;5030286;28;20033;-71
2023/06/24 02:37:40;;;;;;;24.17;13.50;;;;;;;;;;5030313;28;20032;-71
2023/06/24 02:40:08;;;;;;;19.88;12.13;;;;;;;;;;5030512;28;20029;-73
2023/06/24 02:42:34;;;;;;;20.40;13.23;;;;;;;;;;5029422;28;20021;-71
2023/06/24 02:45:00;;;;;;;18.58;13.18;;;;;;;;;;5029669;28;20034;-72
2023/06/24 02:47:27;;;;;;;19.33;12.02;;;;;;;;;;5030378;28;20021;-71
2023/06/24 02:49:53;;;;;;;22.23;13.75;;;;;;;;;;5030669;28;20088;-71
2023/06/24 02:52:20;;;;;;;23.17;13.52;;;;;;;;;;5029953;28;20110;-71
2023/06/24 02:54:46;;;;;;;24.88;13.05;;;;;;;;;;5031115;28;20026;-72
2023/06/24 02:57:14;;;;;;;25.42;13.27;;;;;;;;;;5030895;28;20068;-72
2023/06/24 02:59:40;;;;;;;19.98;12.80;;;;;;;;;;5031818;28;20021;-72
2023/06/24 03:02:06;;;;;;;18.58;13.73;;;;;;;;;;5030540;28;20036;-73
2023/06/24 03:04:32;;;;;;;17.98;12.35;;;;;;;;;;5030812;28;20030;-73
2023/06/24 03:06:59;;;;;;;21.52;14.10;;;;;;;;;;5031026;28;20167;-72
2023/06/24 03:09:25;;;;;;;19.90;13.77;;;;;;;;;;5030527;28;20060;-72
2023/06/24 03:11:51;;;;;;;21.67;13.45;;;;;;;;;;5029400;28;20034;-73
2023/06/24 03:14:17;;;;;;;26.02;14.40;;;;;;;;;;5031674;28;20021;-72
2023/06/24 03:16:43;;;;;;;21.50;14.55;;;;;;;;;;5031090;28;20163;-71
2023/06/24 03:19:09;;;;;;;19.63;13.38;;;;;;;;;;5031489;28;20025;-70
2023/06/24 03:21:35;;;;;;;22.80;15.13;;;;;;;;;;5031358;28;20025;-71
2023/06/24 03:24:01;;;;;;;20.35;13.82;;;;;;;;;;5031291;28;20117;-72
2023/06/24 03:26:34;;;;;;;20.83;14.43;;;;;;;;;;5031509;28;20025;-71
2023/06/24 03:29:01;;;;;;;20.67;13.68;;;;;;;;;;5031476;28;20024;-71
2023/06/24 03:31:27;;;;;;;25.85;15.52;;;;;;;;;;5031451;28;20037;-71
2023/06/24 03:33:53;;;;;;;23.55;14.35;;;;;;;;;;5031227;28;20429;-71
2023/06/24 03:36:19;;;;;;;22.35;14.93;;;;;;;;;;5031903;28;20025;-73
2023/06/24 03:38:46;;;;;;;28.17;15.80;;;;;;;;;;5033098;28;20132;-73
2023/06/24 03:41:12;;;;;;;30.50;16.13;;;;;;;;;;5033643;28;20468;-72
2023/06/24 03:43:38;;;;;;;25.08;16.00;;;;;;;;;;5031947;28;20040;-71
2023/06/24 03:46:04;;;;;;;26.95;16.25;;;;;;;;;;5031308;28;20018;-70
2023/06/24 03:48:30;;;;;;;26.45;16.80;;;;;;;;;;5031398;28;20056;-72
2023/06/24 03:50:56;;;;;;;26.27;16.00;;;;;;;;;;5031022;28;20022;-71
2023/06/24 03:53:22;;;;;;;24.25;15.90;;;;;;;;;;5031042;28;20423;-70
2023/06/24 03:55:47;;;;;;;24.42;16.83;;;;;;;;;;5031302;28;20022;-71
2023/06/24 03:58:16;;;;;;;21.60;15.93;;;;;;;;;;5031224;28;20061;-71
2023/06/24 04:00:43;;;;;;;31.13;16.55;;;;;;;;;;5031261;28;20049;-72
2023/06/24 04:03:09;;;;;;;28.23;16.63;;;;;;;;;;5030717;28;20502;-71
2023/06/24 04:05:35;;;;;;;26.65;16.58;;;;;;;;;;5031210;28;20041;-73
2023/06/24 04:08:06;;;;;;;25.05;16.75;;;;;;;;;;5031158;28;20026;-71
2023/06/24 04:10:32;;;;;;;30.48;16.88;;;;;;;;;;5031009;28;20516;-71
2023/06/24 04:12:58;;;;;;;23.70;15.15;;;;;;;;;;5031132;28;20029;-74
2023/06/24 04:15:24;;;;;;;28.30;16.42;;;;;;;;;;5031385;28;20025;-71
2023/06/24 04:17:50;;;;;;;26.23;15.85;;;;;;;;;;5030962;28;20025;-71
2023/06/24 04:20:16;;;;;;;29.23;18.90;;;;;;;;;;5030961;28;20471;-71
2023/06/24 04:22:42;;;;;;;29.88;17.80;;;;;;;;;;5030686;28;20036;-72
2023/06/24 04:25:08;;;;;;;27.10;17.40;;;;;;;;;;5031256;28;20022;-71
2023/06/24 04:27:35;;;;;;;29.88;17.50;;;;;;;;;;5032490;28;20491;-72
2023/06/24 04:30:01;;;;;;;29.33;19.65;;;;;;;;;;5034762;28;20024;-72
2023/06/24 04:32:27;;;;;;;28.67;19.08;;;;;;;;;;5034386;28;20044;-73
2023/06/24 04:34:53;;;;;;;30.30;19.17;;;;;;;;;;5034724;28;20021;-72
2023/06/24 04:37:19;;;;;;;30.73;19.80;;;;;;;;;;5034557;28;20083;-72
2023/06/24 04:39:47;;;;;;;35.63;21.05;;;;;;;;;;5034577;28;20024;-73
2023/06/24 04:42:14;;;;;;;31.08;20.48;;;;;;;;;;5035960;28;20022;-71
2023/06/24 04:44:40;;;;;;;34.17;20.40;;;;;;;;;;5034119;28;20444;-72
2023/06/24 04:47:06;;;;;;;33.03;19.80;;;;;;;;;;5039243;28;20057;-72
2023/06/24 04:49:32;;;;;;;32.42;21.05;;;;;;;;;;5034148;28;20029;-72
2023/06/24 04:52:01;;;;;;;28.88;19.98;;;;;;;;;;5039462;28;20378;-72
2023/06/24 04:54:27;;;;;;;36.55;21.30;;;;;;;;;;5032449;28;20036;-68
2023/06/24 04:56:55;;;;;;;35.33;20.95;;;;;;;;;;5037252;28;20479;-71
2023/06/24 04:59:21;;;;;;;42.17;22.70;;;;;;;;;;5032605;28;20529;-71
2023/06/24 05:01:47;;;;;;;37.33;20.50;;;;;;;;;;5039341;28;20033;-71
2023/06/24 05:04:14;;;;;;;31.48;20.58;;;;;;;;;;5041001;28;20030;-73
2023/06/24 05:06:39;;;;;;;31.15;20.33;;;;;;;;;;5036061;28;20029;-73
2023/06/24 05:09:05;;;;;;;27.50;17.98;;;;;;;;;;5038303;28;20052;-71
2023/06/24 05:11:31;;;;;;;26.55;18.15;;;;;;;;;;5036839;28;20525;-72
2023/06/24 05:13:58;;;;;;;23.40;17.23;;;;;;;;;;5038100;28;20026;-71
2023/06/24 05:16:24;;;;;;;27.45;16.08;;;;;;;;;;5037130;28;20071;-72
2023/06/24 05:18:50;;;;;;;25.80;16.67;;;;;;;;;;5044827;28;20095;-73
2023/06/24 05:21:16;;;;;;;25.15;16.40;;;;;;;;;;5058703;28;20041;-73
2023/06/24 05:23:42;;;;;;;25.15;14.93;;;;;;;;;;5050079;28;20513;-71
2023/06/24 05:26:08;;;;;;;33.45;18.20;;;;;;;;;;5037583;28;20073;-71
2023/06/24 05:28:34;;;;;;;29.30;16.58;;;;;;;;;;5036018;28;20037;-73
2023/06/24 05:31:00;;;;;;;28.25;17.35;;;;;;;;;;5040132;28;20459;-73
2023/06/24 05:33:26;;;;;;;22.05;14.23;;;;;;;;;;5032849;28;20052;-71
2023/06/24 05:35:52;;;;;;;24.02;14.40;;;;;;;;;;5032891;28;20442;-71
2023/06/24 05:38:18;;;;;;;24.75;13.35;;;;;;;;;;5041372;28;20024;-70
2023/06/24 05:40:44;;;;;;;20.90;10.40;;;;;;;;;;5033572;28;20040;-75
2023/06/24 05:43:10;;;;;;;20.75;8.95;;;;;;;;;;5032182;28;20076;-70
2023/06/24 05:45:36;;;;;;;19.23;10.07;;;;;;;;;;5043522;28;20025;-71
2023/06/24 05:48:03;;;;;;;19.17;8.80;;;;;;;;;;5032795;28;20614;-71
2023/06/24 05:50:29;;;;;;;17.95;9.65;;;;;;;;;;5033198;28;20151;-71
2023/06/24 05:52:55;;;;;;;20.65;10.13;;;;;;;;;;5032657;28;20116;-72
2023/06/24 05:55:21;;;;;;;18.63;9.13;;;;;;;;;;5041778;28;20092;-71
2023/06/24 05:57:47;;;;;;;17.15;8.85;;;;;;;;;;5033217;28;20483;-71
2023/06/24 06:00:13;;;;;;;18.30;8.60;;;;;;;;;;5035689;28;20025;-72
2023/06/24 06:02:39;;;;;;;18.08;10.07;;;;;;;;;;5031831;28;20029;-74
2023/06/24 06:05:05;;;;;;;14.52;8.98;;;;;;;;;;5032895;28;20040;-72
2023/06/24 06:07:31;;;;;;;19.60;8.98;;;;;;;;;;5032750;28;20108;-72
2023/06/24 06:09:57;;;;;;;16.13;8.50;;;;;;;;;;5041862;28;20064;-70
2023/06/24 06:12:23;;;;;;;18.13;7.95;;;;;;;;;;5032160;28;20053;-74
2023/06/24 06:14:49;;;;;;;13.07;7.45;;;;;;;;;;5036812;28;20018;-72
2023/06/24 06:17:15;;;;;;;17.85;7.47;;;;;;;;;;5032631;28;20075;-70
2023/06/24 06:19:41;;;;;;;14.45;6.85;;;;;;;;;;5036413;28;20529;-70
2023/06/24 06:22:08;;;;;;;11.70;6.85;;;;;;;;;;5032498;28;20033;-72
2023/06/24 06:24:34;;;;;;;18.63;7.93;;;;;;;;;;5032906;28;20530;-71
2023/06/24 06:27:00;;;;;;;17.50;8.20;;;;;;;;;;5032683;28;20037;-70
2023/06/24 06:29:26;;;;;;;17.13;8.43;;;;;;;;;;5032316;28;20025;-71
2023/06/24 06:31:52;;;;;;;13.00;6.18;;;;;;;;;;5032214;28;20021;-70
2023/06/24 06:34:18;;;;;;;14.25;5.75;;;;;;;;;;5032850;28;20383;-71
2023/06/24 06:36:44;;;;;;;16.13;7.45;;;;;;;;;;5032378;28;20025;-71
2023/06/24 06:39:10;;;;;;;16.35;6.47;;;;;;;;;;5032331;28;20371;-70
2023/06/24 06:41:36;;;;;;;13.15;6.60;;;;;;;;;;5032017;28;20172;-71
2023/06/24 06:44:02;;;;;;;14.50;5.72;;;;;;;;;;5032024;28;20073;-71
2023/06/24 06:46:28;;;;;;;11.95;5.20;;;;;;;;;;5031946;28;20451;-70
2023/06/24 06:48:54;;;;;;;14.88;5.75;;;;;;;;;;5032236;28;20076;-72
2023/06/24 06:51:20;;;;;;;11.30;5.53;;;;;;;;;;5031283;28;20395;-71
2023/06/24 06:53:46;;;;;;;16.45;5.70;;;;;;;;;;5031704;28;20021;-71
2023/06/24 06:56:39;;;;;;;15.93;5.78;;;;;;;;;;5031829;28;20029;-72
2023/06/24 06:59:05;;;;;;;11.43;5.30;;;;;;;;;;5031579;28;20169;-71
2023/06/24 07:01:31;;;;;;;9.60;5.18;;;;;;;;;;5031733;28;20107;-71
2023/06/24 07:03:57;;;;;;;11.45;4.78;;;;;;;;;;5031433;28;20380;-71
2023/06/24 07:06:23;;;;;;;11.38;5.78;;;;;;;;;;5031744;28;20025;-71
2023/06/24 07:08:49;;;;;;;8.98;5.10;;;;;;;;;;5031637;28;20033;-71
2023/06/24 07:11:16;;;;;;;10.15;4.75;;;;;;;;;;5031365;28;20038;-70
2023/06/24 07:13:41;;;;;;;9.85;5.30;;;;;;;;;;5031365;28;20491;-71
2023/06/24 07:16:07;;;;;;;11.82;4.93;;;;;;;;;;5031661;28;20112;-71
2023/06/24 07:18:33;;;;;;;11.45;4.65;;;;;;;;;;5031756;28;20385;-71
2023/06/24 07:21:01;;;;;;;12.68;4.90;;;;;;;;;;5031600;28;20055;-71
2023/06/24 07:23:27;;;;;;;9.40;4.65;;;;;;;;;;5031349;28;20388;-71
2023/06/24 07:25:53;;;;;;;8.27;4.60;;;;;;;;;;5031535;28;20087;-72
2023/06/24 07:28:19;;;;;;;10.55;4.40;;;;;;;;;;5031441;28;20100;-71
2023/06/24 07:30:45;;;;;;;11.68;4.38;;;;;;;;;;5031319;28;20030;-73
2023/06/24 07:33:11;;;;;;;9.60;4.80;;;;;;;;;;5031184;28;20088;-73
2023/06/24 07:35:37;;;;;;;10.52;5.30;;;;;;;;;;5031487;28;20025;-71
2023/06/24 07:38:03;;;;;;;11.20;5.40;;;;;;;;;;5031391;28;20386;-72
2023/06/24 07:40:29;;;;;;;8.65;4.78;;;;;;;;;;5031281;28;20026;-72
2023/06/24 07:42:55;;;;;;;8.45;4.25;;;;;;;;;;5030829;28;20464;-71
2023/06/24 07:45:21;;;;;;;9.00;4.63;;;;;;;;;;5031297;28;20022;-72
2023/06/24 07:47:47;;;;;;;11.18;4.70;;;;;;;;;;5031227;28;20013;-70
2023/06/24 07:50:13;;;;;;;11.05;5.32;;;;;;;;;;5030827;28;20025;-71
2023/06/24 07:52:39;;;;;;;9.57;4.43;;;;;;;;;;5030895;28;20147;-70
2023/06/24 07:55:05;;;;;;;9.88;3.65;;;;;;;;;;5031055;28;20472;-73
2023/06/24 07:57:32;;;;;;;12.30;4.78;;;;;;;;;;5031069;28;20033;-72
2023/06/24 07:59:58;;;;;;;10.10;5.00;;;;;;;;;;5030827;28;20113;-71
2023/06/24 08:02:24;;;;;;;12.07;4.55;;;;;;;;;;5031856;28;20060;-70
2023/06/24 08:04:50;;;;;;;8.05;4.10;;;;;;;;;;5035019;28;20368;-71
2023/06/24 08:07:16;;;;;;;7.97;4.47;;;;;;;;;;5034947;28;20021;-70
2023/06/24 08:09:42;;;;;;;7.38;3.78;;;;;;;;;;5034804;28;20061;-72
2023/06/24 08:12:09;;;;;;;13.40;4.53;;;;;;;;;;5034560;28;20036;-72
2023/06/24 08:14:35;;;;;;;11.43;4.60;;;;;;;;;;5035107;28;20502;-71
2023/06/24 08:17:01;;;;;;;7.03;4.30;;;;;;;;;;5034774;28;20057;-71
2023/06/24 08:19:27;;;;;;;11.88;4.13;;;;;;;;;;5032499;28;20063;-72
2023/06/24 08:21:53;;;;;;;6.93;3.63;;;;;;;;;;5033203;28;20117;-72
2023/06/24 08:24:19;;;;;;;11.65;4.85;;;;;;;;;;5033370;28;20433;-71
2023/06/24 08:27:19;;;;;;;8.65;4.50;;;;;;;;;;5033648;28;20030;-72
2023/06/24 08:29:45;;;;;;;7.80;3.88;;;;;;;;;;5034055;28;20387;-72
2023/06/24 08:32:11;;;;;;;10.25;4.30;;;;;;;;;;5032958;28;20475;-72
2023/06/24 08:34:37;;;;;;;9.55;4.15;;;;;;;;;;5033393;28;20112;-72
2023/06/24 08:37:03;;;;;;;9.75;3.92;;;;;;;;;;5034108;28;20101;-72
2023/06/24 08:39:29;;;;;;;8.75;4.30;;;;;;;;;;5033388;28;20091;-71
2023/06/24 08:41:55;;;;;;;9.02;4.38;;;;;;;;;;5032754;28;20487;-71
2023/06/24 08:44:21;;;;;;;9.55;4.47;;;;;;;;;;5033372;28;20033;-72
2023/06/24 08:46:48;;;;;;;9.43;4.45;;;;;;;;;;5033084;28;20107;-72
2023/06/24 08:49:23;;;;;;;9.85;5.28;;;;;;;;;;5031060;28;20064;-71
2023/06/24 08:52:08;;;;;;;8.82;4.50;;;;;;;;;;5032974;28;20049;-70
2023/06/24 08:54:34;;;;;;;;;;;;;;;;;;5034758;28;20029;-73
2023/06/24 08:57:01;;;;;;;11.32;4.32;;;;;;;;;;5034139;28;19912;-72
2023/06/24 08:59:27;;;;;;;11.85;4.38;;;;;;;;;;5033894;28;20044;-72
2023/06/24 09:01:53;;;;;;;13.05;4.82;;;;;;;;;;5033237;28;20037;-71
2023/06/24 09:04:19;;;;;;;13.05;4.28;;;;;;;;;;5033786;28;20072;-72
2023/06/24 09:06:45;;;;;;;10.50;3.95;;;;;;;;;;5033715;28;20056;-71
2023/06/24 09:09:21;;;;;;;10.10;6.43;;;;;;;;;;5034010;28;20064;-73
2023/06/24 09:11:53;;;;;;;8.98;4.45;;;;;;;;;;5033765;28;20025;-74
2023/06/24 09:14:21;;;;;;;10.20;4.10;;;;;;;;;;5032779;28;20049;-77
2023/06/24 09:16:54;;;;;;;9.38;4.20;;;;;;;;;;5033599;28;20100;-74
2023/06/24 09:19:23;;;;;;;8.88;4.00;;;;;;;;;;5033918;28;20112;-75
2023/06/24 09:21:51;;;;;;;9.20;4.60;;;;;;;;;;5033536;28;20033;-78
2023/06/24 09:24:17;;;;;;;10.60;4.00;;;;;;;;;;5034035;28;20083;-73
2023/06/24 09:26:44;;;;;;;9.85;4.20;;;;;;;;;;5033655;28;20026;-75
2023/06/24 09:29:11;;;;;;;9.73;4.22;;;;;;;;;;5034056;28;20029;-74
2023/06/24 09:31:46;;;;;;;9.20;4.07;;;;;;;;;;5033051;28;20048;-74
2023/06/24 09:34:15;;;;;;;11.27;4.40;;;;;;;;;;5033388;28;20100;-73
2023/06/24 09:36:45;;;;;;;10.52;5.00;;;;;;;;;;5033276;28;20025;-74
2023/06/24 09:39:11;;;;;;;7.18;3.85;;;;;;;;;;5033255;28;20471;-74
2023/06/24 09:41:40;;;;;;;12.30;4.20;;;;;;;;;;5033054;28;20071;-74
2023/06/24 09:44:08;;;;;;;6.90;4.22;;;;;;;;;;5032966;28;20537;-75
2023/06/24 09:46:36;;;;;;;10.48;4.10;;;;;;;;;;5033258;28;20475;-76
2023/06/24 09:49:02;;;;;;;10.20;4.68;;;;;;;;;;5031245;28;20702;-75
2023/06/24 09:51:28;;;;;;;7.57;4.63;;;;;;;;;;5032561;28;20029;-76
2023/06/24 09:53:57;;;;;;;14.63;9.57;;;;;;;;;;5031530;28;20029;-74
2023/06/24 09:56:23;;;;;;;11.55;4.75;;;;;;;;;;5031755;28;20388;-74
2023/06/24 09:58:50;;;;;;;11.40;5.18;;;;;;;;;;5031904;28;20021;-75
2023/06/24 10:01:17;;;;;;;9.00;4.25;;;;;;;;;;5033437;28;20049;-75
2023/06/24 10:03:43;;;;;;;7.88;4.97;;;;;;;;;;5033464;28;20035;-74
2023/06/24 10:06:09;;;;;;;7.18;4.40;;;;;;;;;;5033999;28;20493;-75
2023/06/24 10:08:35;;;;;;;11.50;5.07;;;;;;;;;;5033011;28;20045;-74
2023/06/24 10:11:02;;;;;;;9.65;4.65;;;;;;;;;;5033495;28;20056;-74
2023/06/24 10:13:28;;;;;;;12.95;5.40;;;;;;;;;;5036398;28;20398;-74
2023/06/24 10:15:55;;;;;;;9.52;5.38;;;;;;;;;;5033244;28;20068;-75
2023/06/24 10:18:37;;;;;;;11.18;5.00;;;;;;;;;;5031683;28;20029;-75
2023/06/24 10:21:06;;;;;;;7.78;4.90;;;;;;;;;;5032484;28;20034;-75
2023/06/24 10:23:48;;;;;;;8.80;5.50;;;;;;;;;;5031219;28;20037;-74
2023/06/24 10:26:37;;;;;;;10.00;4.32;;;;;;;;;;5033488;28;20044;-73
2023/06/24 10:29:05;;;;;;;9.15;5.30;;;;;;;;;;5030606;28;20120;-74
2023/06/24 10:31:41;;;;;;;8.68;5.13;;;;;;;;;;5031151;28;20036;-75
2023/06/24 10:34:25;;;;;;;7.72;5.35;;;;;;;;;;5030771;28;20028;-75
2023/06/24 10:36:51;;;;;;;;;;;;;;;;;;5033050;28;20026;-75
2023/06/24 10:39:36;;;;;;;7.53;4.70;;;;;;;;;;5031097;28;19963;-75
2023/06/24 10:42:02;;;;;;;;;;;;;;;;;;5030214;28;20037;-75
2023/06/24 10:44:28;;;;;;;8.75;4.97;;;;;;;;;;5031145;28;19931;-75
2023/06/24 10:46:54;;;;;;;8.38;5.18;;;;;;;;;;5030855;28;20029;-76
2023/06/24 10:49:20;;;;;;;11.15;6.18;;;;;;;;;;5030922;28;20080;-75
2023/06/24 10:51:47;;;;;;;13.18;5.20;;;;;;;;;;5030290;28;20585;-77
2023/06/24 10:54:13;;;;;;;9.18;4.95;;;;;;;;;;5031616;28;20026;-75
2023/06/24 10:56:39;;;;;;;9.82;5.93;;;;;;;;;;5031864;28;20052;-74
2023/06/24 10:59:05;;;;;;;9.43;5.38;;;;;;;;;;5031916;28;20491;-74
2023/06/24 11:01:31;;;;;;;13.77;5.13;;;;;;;;;;5031833;28;20029;-74
2023/06/24 11:03:56;;;;;;;7.80;4.90;;;;;;;;;;5031558;28;20036;-74
2023/06/24 11:06:22;;;;;;;7.45;5.35;;;;;;;;;;5031851;28;20104;-73
2023/06/24 11:08:48;;;;;;;17.95;9.90;;;;;;;;;;5031846;28;20415;-75
2023/06/24 11:11:24;;;;;;;33.22;21.17;;;;;;;;;;5031909;28;20026;-75
2023/06/24 11:13:50;;;;;;;10.75;5.68;;;;;;;;;;5033002;28;20049;-74
2023/06/24 11:16:21;;;;;;;10.88;4.70;;;;;;;;;;5031913;28;20048;-74
2023/06/24 11:18:47;;;;;;;8.25;4.18;;;;;;;;;;5032079;28;20029;-73
2023/06/24 11:21:13;;;;;;;8.70;5.25;;;;;;;;;;5031628;28;20026;-73
2023/06/24 11:23:39;;;;;;;10.95;4.82;;;;;;;;;;5031284;28;20353;-75
2023/06/24 11:26:05;;;;;;;11.70;5.63;;;;;;;;;;5031453;28;20036;-74
2023/06/24 11:28:34;;;;;;;12.38;5.40;;;;;;;;;;5031413;28;20040;-74
2023/06/24 11:31:08;;;;;;;8.57;5.40;;;;;;;;;;5030825;28;20075;-76
2023/06/24 11:33:34;;;;;;;9.38;5.25;;;;;;;;;;5031108;28;20049;-75
2023/06/24 11:36:00;;;;;;;8.27;4.65;;;;;;;;;;5031577;28;20498;-74
2023/06/24 11:38:31;;;;;;;12.38;5.43;;;;;;;;;;5031027;28;20044;-74
2023/06/24 11:40:58;;;;;;;7.97;4.93;;;;;;;;;;5030009;28;20037;-73
2023/06/24 11:43:26;;;;;;;9.52;5.03;;;;;;;;;;5031169;28;20041;-75
2023/06/24 11:45:52;;;;;;;8.32;4.90;;;;;;;;;;5031205;28;20617;-75
2023/06/24 11:48:20;;;;;;;11.25;5.28;;;;;;;;;;5031297;28;20049;-75
2023/06/24 11:50:53;;;;;;;10.70;6.28;;;;;;;;;;5033190;28;20083;-75
2023/06/24 11:53:23;;;;;;;7.75;5.53;;;;;;;;;;5032121;28;20060;-75
2023/06/24 11:55:52;;;;;;;10.07;5.05;;;;;;;;;;5032514;28;20028;-75
2023/06/24 11:58:20;;;;;;;8.93;5.20;;;;;;;;;;5032764;28;20379;-75
2023/06/24 12:00:47;;;;;;;11.90;5.40;;;;;;;;;;5032976;28;20051;-77
2023/06/24 12:03:13;;;;;;;10.68;4.88;;;;;;;;;;5032467;28;20029;-75
2023/06/24 12:05:44;;;;;;;12.55;5.32;;;;;;;;;;5032501;28;20099;-75
2023/06/24 12:08:11;;;;;;;15.32;4.68;;;;;;;;;;5032169;28;20105;-74
2023/06/24 12:10:38;;;;;;;7.97;5.20;;;;;;;;;;5029907;28;20033;-75
2023/06/24 12:13:05;;;;;;;11.23;4.85;;;;;;;;;;5031908;28;20426;-75
2023/06/24 12:15:32;;;;;;;7.00;4.60;;;;;;;;;;5032660;28;20140;-74
2023/06/24 12:17:58;;;;;;;8.45;4.43;;;;;;;;;;5034861;28;20410;-75
2023/06/24 12:20:25;;;;;;;10.23;5.20;;;;;;;;;;5036039;28;20105;-75
2023/06/24 12:22:51;;;;;;;7.90;4.70;;;;;;;;;;5041718;28;20398;-74
2023/06/24 12:25:17;;;;;;;7.38;4.47;;;;;;;;;;5037760;28;20475;-73
2023/06/24 12:27:44;;;;;;;9.07;4.78;;;;;;;;;;5031510;28;20028;-75
2023/06/24 12:30:11;;;;;;;7.25;5.15;;;;;;;;;;5030971;28;20029;-75
2023/06/24 12:32:37;;;;;;;10.27;5.10;;;;;;;;;;5030941;28;20021;-77
2023/06/24 12:35:03;;;;;;;11.13;4.38;;;;;;;;;;5031167;28;20029;-74
2023/06/24 12:37:33;;;;;;;9.15;4.40;;;;;;;;;;5031246;28;20037;-74
2023/06/24 12:40:00;;;;;;;10.20;5.00;;;;;;;;;;5032303;28;20125;-79
2023/06/24 12:42:26;;;;;;;11.95;5.10;;;;;;;;;;5031740;28;20483;-76
2023/06/24 12:44:52;;;;;;;8.50;4.88;;;;;;;;;;5030868;28;20411;-76
2023/06/24 12:47:19;;;;;;;10.40;5.15;;;;;;;;;;5031199;28;20032;-81
2023/06/24 12:49:45;;;;;;;8.77;4.03;;;;;;;;;;5032736;28;20105;-76
2023/06/24 12:52:12;;;;;;;9.68;5.50;;;;;;;;;;5033774;28;20568;-75
2023/06/24 12:54:38;;;;;;;8.90;5.53;;;;;;;;;;5034681;28;20021;-75
2023/06/24 12:57:04;;;;;;;9.30;4.78;;;;;;;;;;5034899;28;20033;-75
2023/06/24 12:59:30;;;;;;;7.57;4.85;;;;;;;;;;5034025;28;20049;-76
2023/06/24 13:01:56;;;;;;;11.60;4.90;;;;;;;;;;5033711;28;20060;-76
2023/06/24 13:04:23;;;;;;;13.93;4.63;;;;;;;;;;5034247;28;20030;-75
2023/06/24 13:06:50;;;;;;;9.57;5.60;;;;;;;;;;5033920;28;20025;-75
2023/06/24 13:09:16;;;;;;;7.60;5.10;;;;;;;;;;5033789;28;20487;-74
2023/06/24 13:11:42;;;;;;;10.70;5.47;;;;;;;;;;5033737;28;20036;-75
2023/06/24 13:14:09;;;;;;;6.43;4.40;;;;;;;;;;5033988;28;20438;-75
2023/06/24 13:16:35;;;;;;;8.10;4.70;;;;;;;;;;5034447;28;20029;-74
2023/06/24 13:19:02;;;;;;;7.32;4.50;;;;;;;;;;5034458;28;20017;-75
2023/06/24 13:21:28;;;;;;;6.32;4.20;;;;;;;;;;5034114;28;20029;-75
2023/06/24 13:23:54;;;;;;;9.40;4.13;;;;;;;;;;5034144;28;20036;-76
2023/06/24 13:26:20;;;;;;;13.23;4.47;;;;;;;;;;5034366;28;20069;-76
2023/06/24 13:28:46;;;;;;;7.70;4.15;;;;;;;;;;5035021;28;20056;-77
2023/06/24 13:31:12;;;;;;;6.45;4.13;;;;;;;;;;5035440;28;20564;-76
2023/06/24 13:33:38;;;;;;;7.22;3.70;;;;;;;;;;5032447;28;20055;-75
2023/06/24 13:36:05;;;;;;;6.07;3.45;;;;;;;;;;5033771;28;20028;-74
2023/06/24 13:38:31;;;;;;;9.05;4.20;;;;;;;;;;5034143;28;20108;-73
2023/06/24 13:40:57;;;;;;;11.25;4.15;;;;;;;;;;5033667;28;20021;-76
2023/06/24 13:43:23;;;;;;;10.20;4.50;;;;;;;;;;5033443;28;20475;-74
2023/06/24 13:45:49;;;;;;;7.95;3.83;;;;;;;;;;5033722;28;20029;-75
2023/06/24 13:48:15;;;;;;;7.50;4.70;;;;;;;;;;5033860;28;20101;-75
2023/06/24 13:50:41;;;;;;;14.13;6.90;;;;;;;;;;5034508;28;20549;-75
2023/06/24 13:53:07;;;;;;;8.07;4.20;;;;;;;;;;5034108;28;20028;-76
2023/06/24 13:55:33;;;;;;;8.18;3.78;;;;;;;;;;5033341;28;20116;-74
2023/06/24 13:57:59;;;;;;;7.85;4.00;;;;;;;;;;5033643;28;20026;-74
2023/06/24 14:00:25;;;;;;;7.68;4.10;;;;;;;;;;5033297;28;20026;-75
2023/06/24 14:02:51;;;;;;;9.23;3.88;;;;;;;;;;5033781;28;20108;-74
2023/06/24 14:05:17;;;;;;;5.53;3.50;;;;;;;;;;5033690;28;20066;-75
2023/06/24 14:07:43;;;;;;;6.97;3.85;;;;;;;;;;5033114;28;20052;-76
2023/06/24 14:10:09;;;;;;;8.63;4.38;;;;;;;;;;5033114;28;20487;-74
2023/06/24 14:12:35;;;;;;;11.10;3.60;;;;;;;;;;5033618;28;20029;-74
2023/06/24 14:15:01;;;;;;;5.80;3.75;;;;;;;;;;5032854;28;20410;-75
2023/06/24 14:17:27;;;;;;;8.23;4.30;;;;;;;;;;5032735;28;20021;-75
2023/06/24 14:19:53;;;;;;;14.45;4.32;;;;;;;;;;5033117;28;20064;-76
2023/06/24 14:22:19;;;;;;;6.97;3.83;;;;;;;;;;5032129;28;20037;-76
2023/06/24 14:24:45;;;;;;;8.57;4.25;;;;;;;;;;5032446;28;20100;-75
2023/06/24 14:27:11;;;;;;;8.30;4.05;;;;;;;;;;5032526;28;20049;-74
2023/06/24 14:29:37;;;;;;;6.85;3.88;;;;;;;;;;5035076;28;20056;-76